Time;durP1;ratioP1;P1;durP2;ratioP2;P2;SDS_P1;SDS_P2;PMS_P1;PMS_P2;Temp;Humidity;BMP_temperature;BMP_pressure;BME280_temperature;BME280_humidity;BME280_pressure;Samples;Min_cycle;Max_cycle;Signal;HPM_P1;HPM_P2
2024/03/18 00:00:20;;;;;;;8.65;4.35;;;;;;;12.97;100.00;99122.88;4989583;28;20042;-96
2024/03/18 00:02:48;;;;;;;7.80;4.53;;;;;;;12.89;100.00;99125.78;5005555;28;20038;-94
2024/03/18 00:05:15;;;;;;;7.78;4.65;;;;;;;12.11;100.00;98983.19;5006919;28;20041;-94
2024/03/18 00:07:42;;;;;;;10.07;4.68;;;;;;;12.98;100.00;99116.63;4986224;28;20486;-96
2024/03/18 00:10:10;;;;;;;7.78;4.30;;;;;;;12.35;100.00;98999.38;4982103;28;20053;-96
2024/03/18 00:12:36;;;;;;;8.73;4.50;;;;;;;12.40;100.00;99013.41;4983682;28;20136;-96
2024/03/18 00:15:03;;;;;;;10.10;5.68;;;;;;;13.04;100.00;99114.63;4984298;28;20047;-94
2024/03/18 00:17:30;;;;;;;9.65;5.30;;;;;;;13.05;100.00;99111.03;4997892;28;20053;-96
2024/03/18 00:19:56;;;;;;;8.60;5.05;;;;;;;12.76;100.00;99028.34;4998124;28;20053;-95
2024/03/18 00:22:22;;;;;;;10.48;5.00;;;;;;;13.20;100.00;99100.78;4997325;28;20042;-96
2024/03/18 00:24:48;;;;;;;7.90;4.35;;;;;;;12.80;100.00;99054.03;4995768;28;20065;-96
2024/03/18 00:27:14;;;;;;;9.23;4.65;;;;;;;12.37;100.00;98970.84;4997972;28;20539;-96
2024/03/18 00:29:40;;;;;;;9.25;4.80;;;;;;;12.34;100.00;98986.97;4998349;28;20054;-96
2024/03/18 00:32:06;;;;;;;10.90;5.47;;;;;;;12.54;100.00;99011.22;4996679;28;20057;-96
2024/03/18 00:34:34;;;;;;;12.63;6.15;;;;;;;12.67;100.00;99035.72;4993885;28;20050;-96
2024/03/18 00:37:00;;;;;;;9.95;4.88;;;;;;;12.99;100.00;99084.53;4998064;28;20120;-96
2024/03/18 00:39:27;;;;;;;8.00;4.88;;;;;;;12.99;100.00;99083.66;4997997;28;20163;-96
2024/03/18 00:41:56;;;;;;;14.27;5.57;;;;;;;12.92;100.00;99091.88;4996500;28;20038;-96
2024/03/18 00:44:24;;;;;;;10.98;4.90;;;;;;;12.96;100.00;99084.63;4996975;28;20046;-96
2024/03/18 00:46:50;;;;;;;13.20;5.40;;;;;;;12.06;100.00;98949.59;4993704;28;20077;-95
2024/03/18 00:49:16;;;;;;;10.90;4.95;;;;;;;12.89;100.00;99083.94;4998046;28;20053;-96
2024/03/18 00:51:43;;;;;;;7.97;4.38;;;;;;;12.84;100.00;99091.22;5005470;28;20053;-95
2024/03/18 00:54:10;;;;;;;9.88;4.47;;;;;;;12.06;100.00;98966.47;5013815;28;20101;-95
2024/03/18 00:56:37;;;;;;;8.85;5.03;;;;;;;12.44;100.00;99025.75;4998405;28;20054;-96
2024/03/18 00:59:03;;;;;;;9.35;4.47;;;;;;;12.48;100.00;99035.41;4998241;28;20065;-96
2024/03/18 01:01:30;;;;;;;7.72;4.30;;;;;;;12.07;100.00;98954.88;4997841;28;20137;-95
2024/03/18 01:03:56;;;;;;;11.07;4.88;;;;;;;12.06;100.00;98950.47;4998166;28;20045;-96
2024/03/18 01:06:24;;;;;;;9.48;4.38;;;;;;;12.21;100.00;98965.13;4997254;28;20057;-96
2024/03/18 01:08:52;;;;;;;7.35;3.85;;;;;;;12.82;100.00;99069.06;4997561;28;20087;-96
2024/03/18 01:11:19;;;;;;;8.05;3.88;;;;;;;12.80;100.00;99067.38;4997167;28;20042;-96
2024/03/18 01:13:47;;;;;;;6.72;4.00;;;;;;;12.38;100.00;98996.59;4998774;28;20074;-96
2024/03/18 01:16:13;;;;;;;10.55;4.00;;;;;;;12.03;100.00;98937.22;4994541;28;20054;-96
2024/03/18 01:18:39;;;;;;;7.63;4.45;;;;;;;12.71;100.00;99057.84;4996832;28;20121;-96
2024/03/18 01:21:09;;;;;;;6.65;3.67;;;;;;;12.37;100.00;98996.66;4994375;28;20447;-95
2024/03/18 01:23:35;;;;;;;6.45;3.55;;;;;;;12.35;100.00;98987.84;4997243;28;20756;-96
2024/03/18 01:26:03;;;;;;;6.93;3.35;;;;;;;12.38;100.00;99003.72;4997287;28;20100;-96
2024/03/18 01:28:29;;;;;;;5.88;3.20;;;;;;;12.82;100.00;99060.19;4997171;28;20131;-95
2024/03/18 01:30:56;;;;;;;8.68;3.88;;;;;;;12.71;100.00;99052.50;4994233;28;20070;-96
2024/03/18 01:33:23;;;;;;;6.72;3.50;;;;;;;12.44;100.00;99014.22;4997408;28;20042;-96
2024/03/18 01:35:49;;;;;;;6.32;4.00;;;;;;;11.99;100.00;98922.28;4997204;28;20061;-96
2024/03/18 01:38:16;;;;;;;5.45;3.45;;;;;;;12.58;100.00;99046.69;4996924;28;20061;-96
2024/03/18 01:40:42;;;;;;;8.77;3.67;;;;;;;11.92;100.00;98928.69;4997424;28;20152;-96
2024/03/18 01:43:10;;;;;;;6.60;3.78;;;;;;;12.33;100.00;99023.41;4997135;28;20520;-95
2024/03/18 01:45:38;;;;;;;5.13;3.63;;;;;;;11.93;100.00;98970.41;4996438;28;20074;-96
2024/03/18 01:48:06;;;;;;;5.90;3.85;;;;;;;11.44;100.00;98897.22;4997734;28;20092;-96
2024/03/18 01:50:32;;;;;;;10.57;4.05;;;;;;;12.19;100.00;99030.06;4998700;28;20042;-96
2024/03/18 01:52:59;;;;;;;8.13;3.53;;;;;;;11.43;100.00;98922.09;4997158;28;20042;-95
2024/03/18 01:55:25;;;;;;;9.82;4.15;;;;;;;11.85;100.00;98989.25;4992769;28;20041;-95
2024/03/18 01:57:52;;;;;;;10.02;4.10;;;;;;;12.20;100.00;99039.81;4996331;28;20177;-95
2024/03/18 02:03:45;;;;;;;8.52;3.95;;;;;;;11.51;100.00;98923.63;5153966;27;20394;-94
2024/03/18 02:06:11;;;;;;;6.28;3.92;;;;;;;12.16;100.00;99024.84;5114013;28;20078;-96
2024/03/18 02:08:37;;;;;;;8.35;3.88;;;;;;;12.16;100.00;99011.50;5130481;28;20446;-96
2024/03/18 02:11:03;;;;;;;7.15;3.90;;;;;;;11.46;100.00;98916.69;5113952;28;20122;-96
2024/03/18 02:13:32;;;;;;;9.07;4.90;;;;;;;12.01;100.00;99024.34;5114957;28;20043;-96
2024/03/18 02:15:59;;;;;;;9.25;4.32;;;;;;;11.41;100.00;98918.63;5109454;28;20510;-96
2024/03/18 02:18:26;;;;;;;8.07;3.97;;;;;;;12.00;100.00;99027.94;5113729;28;20051;-96
2024/03/18 02:20:56;;;;;;;13.73;4.57;;;;;;;11.94;100.00;99019.25;5114891;27;20036;-96
2024/03/18 02:23:28;;;;;;;7.95;4.03;;;;;;;11.91;100.00;99022.88;5129611;28;20038;-94
2024/03/18 02:25:54;;;;;;;9.88;3.88;;;;;;;11.88;100.00;99023.84;5134988;27;20036;-95
2024/03/18 02:28:20;;;;;;;10.77;5.03;;;;;;;11.20;100.00;98909.41;5134775;27;20087;-95
2024/03/18 02:30:46;;;;;;;13.77;4.82;;;;;;;11.16;100.00;98913.06;5134783;27;20046;-95
2024/03/18 02:33:12;;;;;;;8.27;4.55;;;;;;;11.84;100.00;99007.94;5133308;27;20053;-94
2024/03/18 02:35:38;;;;;;;10.52;4.60;;;;;;;11.56;100.00;98962.56;5128406;27;20034;-94
2024/03/18 02:38:04;;;;;;;9.93;4.72;;;;;;;11.87;100.00;99011.41;5136930;27;20035;-94
2024/03/18 02:40:32;;;;;;;11.60;4.97;;;;;;;11.60;100.00;98967.78;5138598;27;20069;-95
2024/03/18 02:42:58;;;;;;;9.73;5.07;;;;;;;11.96;100.00;99018.28;5128307;27;20036;-93
2024/03/18 02:45:24;;;;;;;11.88;4.90;;;;;;;11.90;100.00;99003.34;5112594;28;20103;-95
2024/03/18 02:47:50;;;;;;;11.95;4.55;;;;;;;11.88;100.00;98998.97;5120292;28;20039;-94
2024/03/18 02:50:18;;;;;;;10.75;4.95;;;;;;;11.39;100.00;98920.44;5130699;28;20048;-94
2024/03/18 02:52:46;;;;;;;10.05;5.43;;;;;;;11.11;100.00;98883.94;5130139;28;20047;-96
2024/03/18 02:55:12;;;;;;;8.95;4.55;;;;;;;11.21;100.00;98884.53;5122053;28;20047;-96
2024/03/18 02:57:40;;;;;;;10.10;5.38;;;;;;;11.15;100.00;98885.59;5122472;28;20387;-96
2024/03/18 03:00:08;;;;;;;13.88;5.85;;;;;;;11.80;100.00;98992.97;5114557;27;20049;-95
2024/03/18 03:02:34;;;;;;;12.85;4.88;;;;;;;11.75;100.00;98992.22;5115376;28;20051;-95
2024/03/18 03:05:01;;;;;;;8.93;5.07;;;;;;;11.40;100.00;98949.66;5112396;28;20047;-96
2024/03/18 03:07:27;;;;;;;9.27;5.10;;;;;;;11.59;100.00;99000.63;5111141;28;20050;-95
2024/03/18 03:09:53;;;;;;;12.18;5.55;;;;;;;11.61;100.00;98982.81;5112876;28;20071;-95
2024/03/18 03:12:19;;;;;;;9.85;5.07;;;;;;;11.61;100.00;98969.50;5111824;28;20117;-96
2024/03/18 03:14:47;;;;;;;10.07;4.55;;;;;;;11.52;100.00;98967.13;5099620;28;20523;-95
2024/03/18 03:17:13;;;;;;;9.82;4.20;;;;;;;11.47;100.00;98963.69;5097717;28;20039;-96
2024/03/18 03:19:39;;;;;;;10.13;5.43;;;;;;;11.36;100.00;98960.44;5098487;28;20036;-95
2024/03/18 03:22:05;;;;;;;8.43;4.68;;;;;;;10.95;100.00;98893.22;5097206;28;20035;-95
2024/03/18 03:24:31;;;;;;;9.93;4.80;;;;;;;10.94;100.00;98929.59;5098175;28;20046;-96
2024/03/18 03:26:57;;;;;;;14.18;5.22;;;;;;;11.18;100.00;98964.47;5098061;28;20042;-96
2024/03/18 03:29:23;;;;;;;12.10;6.15;;;;;;;11.13;100.00;98964.59;5098572;28;20039;-96
2024/03/18 03:31:50;;;;;;;9.80;5.88;;;;;;;11.07;100.00;98959.44;5095666;28;20040;-95
2024/03/18 03:34:16;;;;;;;13.35;5.72;;;;;;;10.94;100.00;98934.06;5098770;28;20097;-95
2024/03/18 03:36:44;;;;;;;11.20;5.97;;;;;;;10.67;100.00;98886.84;5098219;28;20032;-95
2024/03/18 03:39:11;;;;;;;11.10;5.93;;;;;;;11.02;100.00;98946.25;5097461;28;20109;-95
2024/03/18 03:41:37;;;;;;;12.55;6.05;;;;;;;10.98;100.00;98941.94;5098559;28;20062;-95
2024/03/18 03:44:04;;;;;;;13.13;6.15;;;;;;;10.97;100.00;98950.81;5098566;28;20055;-95
2024/03/18 03:46:30;;;;;;;10.88;5.93;;;;;;;10.56;100.00;98869.41;5099552;28;20118;-96
2024/03/18 03:48:57;;;;;;;13.40;6.95;;;;;;;11.00;100.00;98936.56;5097537;28;20063;-95
2024/03/18 03:51:24;;;;;;;13.70;6.50;;;;;;;10.41;100.00;98834.34;5098555;28;20084;-96
2024/03/18 03:53:50;;;;;;;13.05;6.88;;;;;;;10.41;100.00;98830.78;5098708;28;20043;-94
2024/03/18 03:56:16;;;;;;;11.68;6.07;;;;;;;11.06;100.00;98942.59;5096583;28;20071;-95
2024/03/18 03:58:46;;;;;;;13.02;6.05;;;;;;;10.94;100.00;98926.94;5097823;28;20043;-95
2024/03/18 04:01:12;;;;;;;12.43;6.80;;;;;;;10.33;100.00;98815.03;5093697;28;20040;-96
2024/03/18 04:03:38;;;;;;;12.45;5.93;;;;;;;11.04;100.00;98940.91;5096441;28;20059;-96
2024/03/18 04:06:06;;;;;;;10.32;6.03;;;;;;;10.47;100.00;98850.16;5097711;28;20047;-94
2024/03/18 04:08:32;;;;;;;11.38;5.97;;;;;;;10.69;100.00;98900.09;5097393;28;20055;-94
2024/03/18 04:10:58;;;;;;;9.70;5.72;;;;;;;10.89;100.00;98943.03;5097305;28;20044;-95
2024/03/18 04:13:24;;;;;;;11.20;5.97;;;;;;;10.68;100.00;98906.34;5096253;28;20036;-95
2024/03/18 04:15:49;;;;;;;10.38;5.40;;;;;;;10.13;100.00;98819.94;5095660;28;20059;-95
2024/03/18 04:18:16;;;;;;;12.60;5.72;;;;;;;10.84;100.00;98949.38;5099529;28;20962;-96
2024/03/18 04:20:43;;;;;;;12.38;6.07;;;;;;;10.20;100.00;98824.22;5097698;28;20733;-93
2024/03/18 04:23:11;;;;;;;12.95;6.28;;;;;;;10.49;100.00;98871.34;5097824;28;20043;-96
2024/03/18 04:25:37;;;;;;;14.63;5.38;;;;;;;10.68;100.00;98890.38;5095651;28;20127;-96
2024/03/18 04:28:06;;;;;;;10.23;6.00;;;;;;;10.37;100.00;98808.75;5097508;28;20130;-96
2024/03/18 04:30:37;;;;;;;11.13;6.03;;;;;;;11.06;100.00;98926.63;5094304;28;20079;-96
2024/03/18 04:33:06;;;;;;;10.63;5.78;;;;;;;11.05;100.00;98934.66;5095613;28;20040;-96
2024/03/18 04:35:32;;;;;;;13.48;5.65;;;;;;;11.02;100.00;98929.44;5093894;28;20062;-95
2024/03/18 04:37:58;;;;;;;11.95;6.00;;;;;;;10.46;100.00;98859.00;5096973;28;20044;-96
2024/03/18 04:40:26;;;;;;;9.68;5.32;;;;;;;10.90;100.00;98920.81;5097399;28;20045;-95
2024/03/18 04:42:54;;;;;;;12.68;6.10;;;;;;;10.25;100.00;98795.72;5098222;28;20070;-96
2024/03/18 04:45:22;;;;;;;12.30;6.03;;;;;;;10.96;100.00;98919.81;5096297;28;20035;-95
2024/03/18 04:47:50;;;;;;;10.90;6.15;;;;;;;10.40;100.00;98829.91;5095971;28;20032;-96
2024/03/18 04:50:19;;;;;;;10.50;5.30;;;;;;;10.40;100.00;98827.25;5096382;28;20044;-96
2024/03/18 04:52:46;;;;;;;10.48;6.13;;;;;;;10.88;100.00;98911.13;5096687;28;20106;-95
2024/03/18 04:55:12;;;;;;;11.48;6.78;;;;;;;10.89;100.00;98910.25;5096250;28;20050;-95
2024/03/18 04:57:50;;;;;;;12.27;5.65;;;;;;;10.74;100.00;98876.06;5097084;28;20044;-96
2024/03/18 05:00:17;;;;;;;11.63;6.03;;;;;;;10.44;100.00;98831.59;5095679;28;20146;-94
2024/03/18 05:02:44;;;;;;;11.00;6.13;;;;;;;10.08;100.00;98774.88;5095222;28;20052;-96
2024/03/18 05:05:12;;;;;;;10.85;5.63;;;;;;;10.84;100.00;98902.38;5097115;28;20100;-96
2024/03/18 05:07:38;;;;;;;10.65;5.38;;;;;;;10.47;100.00;98830.63;5096277;28;20046;-96
2024/03/18 05:10:05;;;;;;;12.25;6.57;;;;;;;10.91;100.00;98903.09;5096208;28;20067;-96
2024/03/18 05:12:31;;;;;;;14.13;5.95;;;;;;;10.95;100.00;98901.22;5096165;28;20043;-96
2024/03/18 05:14:59;;;;;;;10.45;5.72;;;;;;;10.96;100.00;98897.66;5096650;28;20508;-96
2024/03/18 05:17:25;;;;;;;11.40;6.60;;;;;;;10.49;100.00;98836.78;5093193;28;20059;-95
2024/03/18 05:19:52;;;;;;;17.23;7.28;;;;;;;10.67;100.00;98857.59;5093427;28;20032;-96
2024/03/18 05:22:19;;;;;;;12.55;6.15;;;;;;;10.92;100.00;98915.47;5095431;28;20035;-96
2024/03/18 05:24:45;;;;;;;11.35;7.15;;;;;;;10.95;100.00;98891.47;5096061;28;20051;-95
2024/03/18 05:27:11;;;;;;;11.55;5.53;;;;;;;10.98;100.00;98898.47;5097567;28;20051;-96
2024/03/18 05:29:38;;;;;;;13.60;6.00;;;;;;;11.02;100.00;98886.84;5096771;28;20509;-95
2024/03/18 05:32:08;;;;;;;11.73;6.78;;;;;;;10.40;100.00;98821.06;5093642;28;20490;-95
2024/03/18 05:34:34;;;;;;;15.75;6.97;;;;;;;10.98;100.00;98904.69;5096098;28;20074;-96
2024/03/18 05:37:01;;;;;;;13.57;6.10;;;;;;;10.75;100.00;98846.75;5098155;28;20498;-95
2024/03/18 05:39:27;;;;;;;10.02;5.18;;;;;;;11.09;100.00;98897.28;5109852;28;20071;-94
2024/03/18 05:41:54;;;;;;;13.20;5.97;;;;;;;11.12;100.00;98900.75;5116082;28;20061;-94
2024/03/18 05:44:20;;;;;;;14.10;6.25;;;;;;;11.17;100.00;98902.41;5116588;28;20134;-94
2024/03/18 05:46:46;;;;;;;15.43;6.40;;;;;;;11.20;100.00;98906.75;5103957;28;20067;-96
2024/03/18 05:49:14;;;;;;;10.15;5.90;;;;;;;10.89;100.00;98841.94;5106628;28;20055;-96
2024/03/18 05:51:41;;;;;;;12.85;6.70;;;;;;;11.26;100.00;98902.13;5106737;28;20100;-96
2024/03/18 05:54:07;;;;;;;12.10;6.03;;;;;;;11.35;100.00;98916.13;5100326;28;20082;-95
2024/03/18 05:56:33;;;;;;;14.80;6.28;;;;;;;11.37;100.00;98901.84;5098212;28;20065;-95
2024/03/18 05:58:59;;;;;;;12.50;6.05;;;;;;;10.96;100.00;98841.78;5097926;28;20105;-95
2024/03/18 06:01:26;;;;;;;9.98;5.95;;;;;;;10.73;100.00;98789.19;5096360;28;20054;-96
2024/03/18 06:03:52;;;;;;;12.70;6.40;;;;;;;10.77;100.00;98782.88;5098499;28;20092;-96
2024/03/18 06:06:20;;;;;;;12.20;6.10;;;;;;;11.54;100.00;98904.03;5098506;28;20674;-96
2024/03/18 06:08:46;;;;;;;12.50;6.40;;;;;;;11.56;100.00;98906.63;5094847;28;20046;-94
2024/03/18 06:11:12;;;;;;;13.35;6.10;;;;;;;11.69;100.00;98908.03;5096894;28;20040;-94
2024/03/18 06:13:39;;;;;;;17.60;6.28;;;;;;;11.34;100.00;98839.81;5097778;28;20047;-96
2024/03/18 06:16:05;;;;;;;10.02;5.50;;;;;;;11.43;100.00;98836.91;5109003;28;20026;-94
2024/03/18 06:18:32;;;;;;;11.10;6.57;;;;;;;11.18;100.00;98789.69;5118010;28;20047;-95
2024/03/18 06:21:00;;;;;;;13.20;5.90;;;;;;;11.91;100.00;98901.16;5116976;28;20028;-94
2024/03/18 06:23:33;;;;;;;14.18;6.63;;;;;;;11.70;100.00;98862.69;5120299;28;20057;-95
2024/03/18 06:25:59;;;;;;;13.43;7.55;;;;;;;11.80;100.00;98859.75;5121573;28;20024;-92
2024/03/18 06:28:25;;;;;;;14.55;7.60;;;;;;;12.03;100.00;98905.25;5103533;28;20142;-94
2024/03/18 06:30:52;;;;;;;11.55;6.63;;;;;;;11.97;100.00;98889.47;5095669;28;20044;-95
2024/03/18 06:33:18;;;;;;;15.52;7.35;;;;;;;11.91;100.00;98866.53;5095538;28;20081;-95
2024/03/18 06:35:46;;;;;;;16.05;6.88;;;;;;;11.68;100.00;98821.03;5097155;28;20098;-94
2024/03/18 06:38:11;;;;;;;18.80;7.07;;;;;;;12.31;100.00;98904.38;5097769;28;20043;-88
2024/03/18 06:40:39;;;;;;;16.27;7.55;;;;;;;12.35;100.00;98905.16;5112307;28;20035;-93
2024/03/18 06:43:05;;;;;;;15.35;7.65;;;;;;;11.78;100.00;98801.19;5097808;28;20052;-96
2024/03/18 06:45:33;;;;;;;19.15;7.95;;;;;;;11.77;100.00;98783.44;5101159;28;20036;-96
2024/03/18 06:48:02;;;;;;;15.57;7.85;;;;;;;11.77;100.00;98787.91;5102789;28;20051;-96
2024/03/18 06:50:29;;;;;;;18.70;10.27;;;;;;;11.92;100.00;98819.44;5108477;28;20418;-96
2024/03/18 06:52:56;;;;;;;19.23;9.23;;;;;;;12.47;100.00;98905.66;5101154;28;20032;-95
2024/03/18 06:55:24;;;;;;;23.30;10.63;;;;;;;11.60;100.00;98765.34;5124043;28;20619;-96
2024/03/18 06:57:51;;;;;;;19.27;8.43;;;;;;;11.92;100.00;98804.31;5102612;28;20040;-95
2024/03/18 07:00:19;;;;;;;18.73;8.43;;;;;;;12.29;100.00;98859.09;5101143;28;20134;-95
2024/03/18 07:02:49;;;;;;;16.48;7.85;;;;;;;12.33;100.00;98867.88;5099638;28;20055;-96
2024/03/18 07:05:15;;;;;;;;;;;;;;;12.65;100.00;98908.63;5100229;28;20044;-95
2024/03/18 07:07:41;;;;;;;15.82;7.72;;;;;;;12.62;100.00;98914.94;5102294;28;20040;-96
2024/03/18 07:10:09;;;;;;;16.58;7.82;;;;;;;12.62;100.00;98906.03;5103596;28;20036;-95
2024/03/18 07:12:46;;;;;;;13.80;8.35;;;;;;;12.65;100.00;98911.28;5123611;28;20456;-96
2024/03/18 07:15:16;;;;;;;14.48;8.48;;;;;;;12.54;100.00;98915.19;5102944;28;20063;-96
2024/03/18 07:17:43;;;;;;;14.73;8.13;;;;;;;11.96;100.00;98821.06;5095032;28;20040;-95
2024/03/18 07:20:12;;;;;;;16.17;8.13;;;;;;;12.51;100.00;98911.72;5103262;28;20122;-95
2024/03/18 07:22:40;;;;;;;17.58;8.68;;;;;;;12.52;100.00;98916.16;5101589;28;20039;-95
2024/03/18 07:25:09;;;;;;;12.02;6.95;;;;;;;12.46;100.00;98909.22;5103178;28;20072;-95
2024/03/18 07:27:37;;;;;;;;;;;;;;;12.58;100.00;98915.06;5106115;28;20048;-95
2024/03/18 07:30:05;;;;;;;16.52;7.93;;;;;;;11.82;100.00;98785.97;5104415;28;19924;-94
2024/03/18 07:32:33;;;;;;;13.65;8.25;;;;;;;12.19;100.00;98840.78;5107845;28;20044;-95
2024/03/18 07:35:00;;;;;;;16.17;8.70;;;;;;;12.57;100.00;98924.00;5105127;28;20115;-96
2024/03/18 07:37:28;;;;;;;19.58;8.93;;;;;;;11.83;100.00;98804.56;5107569;28;20040;-96
2024/03/18 07:39:55;;;;;;;15.07;8.00;;;;;;;12.62;100.00;98917.63;5107105;28;20051;-95
2024/03/18 07:42:25;;;;;;;19.30;10.32;;;;;;;12.35;100.00;98875.84;5110916;28;20054;-95
2024/03/18 07:44:57;;;;;;;19.88;8.98;;;;;;;12.10;100.00;98836.63;5337240;22;20023;-95
2024/03/18 07:47:24;;;;;;;15.65;8.50;;;;;;;12.47;100.00;98904.75;5112421;22;20027;-94
2024/03/18 07:49:51;;;;;;;17.27;9.20;;;;;;;12.69;100.00;98927.16;5083201;28;20052;-94
2024/03/18 07:52:18;;;;;;;18.25;9.43;;;;;;;12.71;100.00;98930.63;5093287;28;20016;-96
2024/03/18 07:54:44;;;;;;;16.55;8.43;;;;;;;12.80;100.00;98926.78;5090795;28;20021;-96
2024/03/18 07:57:10;;;;;;;18.67;9.50;;;;;;;12.69;100.00;98896.94;5069081;28;20028;-96
2024/03/18 07:59:37;;;;;;;16.33;9.10;;;;;;;12.90;100.00;98922.91;5059869;28;20056;-95
2024/03/18 08:02:03;;;;;;;16.35;9.15;;;;;;;12.80;100.00;98880.56;5060245;28;20033;-96
2024/03/18 08:04:30;;;;;;;23.70;11.27;;;;;;;12.69;100.00;98873.78;5047859;28;20041;-95
2024/03/18 08:06:57;;;;;;;27.45;13.13;;;;;;;13.06;100.00;98925.03;5049782;28;20037;-96
2024/03/18 08:09:23;;;;;;;24.92;12.05;;;;;;;12.37;100.00;98807.31;5054121;28;20045;-96
2024/03/18 08:11:50;;;;;;;24.33;13.00;;;;;;;13.08;100.00;98924.06;5048739;28;20403;-96
2024/03/18 08:14:17;;;;;;;26.60;13.35;;;;;;;12.92;100.00;98878.34;5049251;28;20041;-96
2024/03/18 08:16:44;;;;;;;21.80;12.18;;;;;;;12.64;100.00;98840.16;5051521;28;20063;-96
2024/03/18 08:19:10;;;;;;;27.10;12.50;;;;;;;13.06;100.00;98914.34;5054544;28;20041;-96
2024/03/18 08:21:36;;;;;;;27.20;11.98;;;;;;;13.02;100.00;98918.91;5060129;28;20063;-96
2024/03/18 08:24:05;;;;;;;23.85;11.70;;;;;;;12.78;100.00;98879.75;5058363;28;20045;-96
2024/03/18 08:26:38;;;;;;;22.95;11.60;;;;;;;12.88;100.00;98916.75;5070656;28;20040;-96
2024/03/18 08:29:06;;;;;;;21.70;11.43;;;;;;;12.26;100.00;98807.69;5061475;28;20123;-96
2024/03/18 08:31:32;;;;;;;26.42;12.70;;;;;;;12.16;100.00;98780.44;5061470;28;20049;-96
2024/03/18 08:33:58;;;;;;;26.02;12.43;;;;;;;12.17;100.00;98781.34;5048014;28;20144;-95
2024/03/18 08:36:25;;;;;;;22.88;10.68;;;;;;;12.28;100.00;98784.50;5054347;28;20048;-96
2024/03/18 08:38:53;;;;;;;20.15;9.60;;;;;;;12.86;100.00;98907.91;5056071;28;20056;-96
2024/03/18 08:41:28;;;;;;;20.88;9.93;;;;;;;12.08;100.00;98782.50;5062807;28;20051;-96
2024/03/18 08:43:57;;;;;;;23.90;10.05;;;;;;;12.12;100.00;98779.69;5058430;28;20041;-96
2024/03/18 08:46:28;;;;;;;19.05;9.10;;;;;;;12.09;100.00;98777.09;5072082;28;20037;-96
2024/03/18 08:49:13;;;;;;;21.73;8.63;;;;;;;12.19;100.00;98782.13;5081428;28;20044;-96
2024/03/18 08:51:43;;;;;;;16.45;8.88;;;;;;;12.38;100.00;98787.72;5073331;28;20118;-96
2024/03/18 08:54:44;;;;;;;13.65;7.53;;;;;;;12.63;100.00;98820.63;5081891;28;20036;-96
2024/03/18 08:57:45;;;;;;;16.05;7.43;;;;;;;12.30;100.00;98761.34;5076362;28;20101;-96
2024/03/18 09:05:55;;;;;;;21.75;8.00;;;;;;;12.56;100.00;98799.56;5873158;23;20059;-96
2024/03/18 09:08:46;;;;;;;;;;;;;;;13.15;100.00;98877.50;5021576;23;20047;-96
2024/03/18 09:21:41;;;;;;;15.13;8.15;;;;;;;12.62;100.00;98749.53;5278004;23;20266;-96
2024/03/18 09:36:46;;;;;;;17.77;8.35;;;;;;;12.81;100.00;98788.88;5368189;23;20054;-96
2024/03/18 09:39:12;;;;;;;17.25;8.18;;;;;;;12.81;100.00;98802.22;4962583;28;20482;-96
2024/03/18 09:41:40;;;;;;;28.13;10.30;;;;;;;13.30;100.00;98875.25;4955639;28;20035;-96
2024/03/18 09:44:12;;;;;;;17.83;7.30;;;;;;;12.86;100.00;98809.16;4949320;29;20471;-96
2024/03/18 09:46:38;;;;;;;20.13;9.68;;;;;;;12.69;100.00;98752.84;4945983;29;20043;-95
2024/03/18 09:49:06;;;;;;;14.10;8.40;;;;;;;13.39;100.00;98872.25;4948025;29;20035;-95
2024/03/18 09:51:38;;;;;;;14.50;7.70;;;;;;;13.42;100.00;98877.47;4952113;29;20039;-96
2024/03/18 09:54:18;;;;;;;20.85;9.30;;;;;;;12.79;100.00;98746.25;4967315;28;20039;-96
2024/03/18 09:56:45;;;;;;;15.85;8.45;;;;;;;13.37;100.00;98826.03;4961217;28;20066;-96
2024/03/18 09:59:12;;;;;;;17.48;8.73;;;;;;;13.34;100.00;98815.47;4950246;28;20051;-95
2024/03/18 10:01:40;;;;;;;15.40;8.18;;;;;;;13.79;100.00;98856.50;4966132;28;20058;-94
2024/03/18 10:04:06;;;;;;;18.27;9.65;;;;;;;13.90;100.00;98856.94;4970465;28;20110;-96
2024/03/18 10:06:36;;;;;;;18.45;8.38;;;;;;;13.27;100.00;98745.34;4974069;28;20123;-96
2024/03/18 10:09:12;;;;;;;13.23;7.65;;;;;;;13.97;100.00;98867.34;5043450;23;20035;-96
2024/03/18 10:11:44;;;;;;;15.38;8.13;;;;;;;14.03;100.00;98855.56;4960550;29;20043;-96
2024/03/18 10:14:11;;;;;;;14.20;7.78;;;;;;;14.05;100.00;98856.38;4946930;29;20106;-95
2024/03/18 10:16:38;;;;;;;17.77;9.77;;;;;;;13.38;100.00;98722.72;4933377;29;20050;-95
2024/03/18 10:19:06;;;;;;;17.42;8.40;;;;;;;13.51;100.00;98761.38;4941983;29;20039;-95
2024/03/18 10:21:37;;;;;;;14.20;8.20;;;;;;;14.11;100.00;98850.75;4944182;29;20035;-96
2024/03/18 10:24:10;;;;;;;16.60;8.10;;;;;;;13.83;100.00;98802.84;4967909;28;20039;-96
2024/03/18 10:26:36;;;;;;;14.27;7.10;;;;;;;14.12;100.00;98852.50;4948505;29;20051;-96
2024/03/18 10:29:03;;;;;;;14.27;7.18;;;;;;;13.50;100.00;98732.94;4948316;29;20078;-96
2024/03/18 10:31:37;;;;;;;16.98;8.65;;;;;;;13.59;100.00;98745.03;5016668;23;20091;-96
2024/03/18 10:34:06;;;;;;;14.10;7.53;;;;;;;13.66;100.00;98736.75;4924272;29;20444;-96
2024/03/18 10:36:35;;;;;;;14.60;8.00;;;;;;;13.48;100.00;98706.25;4910636;29;20116;-96
2024/03/18 10:39:07;;;;;;;13.77;7.95;;;;;;;13.31;100.00;98709.59;4926152;28;20059;-95
2024/03/18 10:41:39;;;;;;;13.57;8.35;;;;;;;13.52;100.00;98741.75;4933208;28;20047;-96
2024/03/18 10:44:15;;;;;;;16.63;7.93;;;;;;;13.91;100.00;98819.47;4929081;29;20057;-96
2024/03/18 10:46:41;;;;;;;17.85;7.45;;;;;;;13.32;100.00;98711.34;4918504;29;20063;-96
2024/03/18 10:49:15;;;;;;;13.02;8.10;;;;;;;13.86;100.00;98816.13;4909296;29;20539;-96
2024/03/18 10:51:44;;;;;;;16.00;7.45;;;;;;;13.41;100.00;98743.97;4909598;29;20098;-96
2024/03/18 10:54:15;;;;;;;15.68;7.53;;;;;;;13.14;100.00;98696.00;4908076;29;20059;-96
2024/03/18 10:56:43;;;;;;;12.75;6.78;;;;;;;13.56;100.00;98791.47;4906562;29;20488;-96
2024/03/18 10:59:11;;;;;;;11.18;6.38;;;;;;;13.70;100.00;98802.47;4905784;29;20044;-95
2024/03/18 11:01:38;;;;;;;15.82;7.63;;;;;;;13.28;100.00;98725.75;4905934;29;20084;-95
2024/03/18 11:04:14;;;;;;;12.43;7.18;;;;;;;13.78;100.00;98791.50;4906700;29;20092;-96
2024/03/18 11:06:46;;;;;;;15.43;8.02;;;;;;;13.85;100.00;98790.31;4907819;29;20048;-95
2024/03/18 11:09:12;;;;;;;14.38;7.53;;;;;;;13.88;100.00;98795.53;4907290;29;20067;-96
2024/03/18 11:11:43;;;;;;;16.50;7.25;;;;;;;13.93;100.00;98787.34;4903507;29;20047;-95
2024/03/18 11:14:12;;;;;;;15.70;7.90;;;;;;;13.96;100.00;98765.81;4906143;29;20046;-95
2024/03/18 11:16:43;;;;;;;14.00;6.78;;;;;;;13.87;100.00;98739.47;4904732;29;20040;-95
2024/03/18 11:19:16;;;;;;;16.30;8.00;;;;;;;13.72;100.00;98687.50;4904715;29;20048;-96
2024/03/18 11:21:42;;;;;;;13.23;7.80;;;;;;;14.37;100.00;98763.22;4904875;29;20082;-95
2024/03/18 11:24:21;;;;;;;14.68;6.30;;;;;;;13.77;100.00;98669.50;4906900;29;20043;-95
2024/03/18 11:26:54;;;;;;;10.68;6.55;;;;;;;14.15;100.00;98728.50;4903812;29;20091;-95
2024/03/18 11:29:20;;;;;;;12.95;6.50;;;;;;;14.32;100.00;98762.56;4905801;29;20048;-96
2024/03/18 11:31:51;;;;;;;13.32;7.03;;;;;;;14.07;100.00;98717.25;4925940;29;20051;-96
2024/03/18 11:34:21;;;;;;;14.52;7.15;;;;;;;13.70;100.00;98649.28;4923232;29;20074;-96
2024/03/18 11:36:47;;;;;;;14.90;7.28;;;;;;;14.42;100.00;98752.31;4920252;29;20044;-96
2024/03/18 11:39:15;;;;;;;16.55;8.07;;;;;;;14.42;100.00;98741.63;4916283;29;20100;-95
2024/03/18 11:41:41;;;;;;;12.73;6.50;;;;;;;14.43;100.00;98746.91;4917644;29;20056;-95
2024/03/18 11:44:11;;;;;;;12.07;6.25;;;;;;;14.26;100.00;98712.84;4919564;29;20830;-93
2024/03/18 11:46:37;;;;;;;11.25;6.28;;;;;;;14.27;100.00;98703.00;4913775;29;20047;-94
2024/03/18 11:49:05;;;;;;;13.82;8.18;;;;;;;14.09;100.00;98668.09;4913191;29;20048;-94
2024/03/18 11:51:31;;;;;;;14.93;7.05;;;;;;;14.21;100.00;98695.28;4921728;29;20801;-94
2024/03/18 11:54:00;;;;;;;13.52;6.82;;;;;;;14.42;100.00;98723.78;4915831;29;20072;-94